createdAt,value
2019-03-12T00:00:02.095Z,8.18
2019-03-12T00:02:33.871Z,8.15
2019-03-12T00:05:05.896Z,8.12
2019-03-12T00:07:37.646Z,8.09
2019-03-12T00:10:10.051Z,8.05
2019-03-12T00:12:41.689Z,8.02
2019-03-12T00:15:13.468Z,8.00
2019-03-12T00:17:45.166Z,7.97
2019-03-12T00:20:16.785Z,7.96
2019-03-12T00:22:48.623Z,7.93
2019-03-12T00:25:20.209Z,7.92
2019-03-12T00:27:51.841Z,7.89
2019-03-12T00:30:23.830Z,7.88
2019-03-12T00:32:55.917Z,7.88
2019-03-12T00:35:27.751Z,7.87
2019-03-12T00:37:59.532Z,7.89
2019-03-12T00:40:31.123Z,7.91
2019-03-12T00:43:02.718Z,7.92
2019-03-12T00:45:34.300Z,7.94
2019-03-12T00:48:05.986Z,7.96
2019-03-12T00:50:37.630Z,7.99
2019-03-12T00:53:09.387Z,8.00
2019-03-12T00:55:40.997Z,8.00
2019-03-12T00:58:12.587Z,8.01
2019-03-12T01:00:44.180Z,8.00
2019-03-12T01:03:15.774Z,7.99
2019-03-12T01:05:47.384Z,7.96
2019-03-12T01:08:18.965Z,7.92
2019-03-12T01:10:50.985Z,7.90
2019-03-12T01:13:22.595Z,7.90
2019-03-12T01:15:54.200Z,7.94
2019-03-12T01:18:25.793Z,7.96
2019-03-12T01:20:57.419Z,7.99
2019-03-12T01:23:29.091Z,8.03
2019-03-12T01:26:00.801Z,8.06
2019-03-12T01:28:32.457Z,8.08
2019-03-12T01:31:04.053Z,8.10
2019-03-12T01:33:35.720Z,8.13
2019-03-12T01:36:07.371Z,8.17
2019-03-12T01:38:39.001Z,8.19
2019-03-12T01:41:10.769Z,8.18
2019-03-12T01:43:42.342Z,8.16
2019-03-12T01:46:13.933Z,8.16
2019-03-12T01:48:45.523Z,8.15
2019-03-12T01:51:17.106Z,8.13
2019-03-12T01:53:48.678Z,8.12
2019-03-12T01:56:20.553Z,8.12
2019-03-12T01:58:52.114Z,8.11
2019-03-12T02:01:23.674Z,8.09
2019-03-12T02:03:56.842Z,8.08
2019-03-12T02:06:28.439Z,8.04
2019-03-12T02:09:00.309Z,7.99
2019-03-12T02:11:32.146Z,7.94
2019-03-12T02:14:21.451Z,7.89
2019-03-12T02:16:53.001Z,7.86
2019-03-12T02:19:24.868Z,7.82
2019-03-12T02:21:56.462Z,7.81
2019-03-12T02:24:28.516Z,7.80
2019-03-12T02:27:00.204Z,7.79
2019-03-12T02:29:31.767Z,7.77
2019-03-12T02:32:04.404Z,7.74
2019-03-12T02:34:36.032Z,7.71
2019-03-12T02:37:08.056Z,7.66
2019-03-12T02:39:39.607Z,7.61
2019-03-12T02:42:12.806Z,7.57
2019-03-12T02:44:45.222Z,7.53
2019-03-12T02:47:16.787Z,7.52
2019-03-12T02:49:48.384Z,7.52
2019-03-12T02:52:20.209Z,7.52
2019-03-12T02:54:51.821Z,7.52
2019-03-12T02:57:23.460Z,7.52
2019-03-12T02:59:55.242Z,7.51
2019-03-12T03:02:26.821Z,7.49
2019-03-12T03:04:58.412Z,7.45
2019-03-12T03:07:47.749Z,7.43
2019-03-12T03:10:19.477Z,7.35
2019-03-12T03:12:51.165Z,7.37
2019-03-12T03:15:25.807Z,7.33
2019-03-12T03:17:57.358Z,7.30
2019-03-12T03:20:28.970Z,7.28
2019-03-12T03:23:00.560Z,7.24
2019-03-12T03:25:32.142Z,7.23
2019-03-12T03:28:03.781Z,7.21
2019-03-12T03:30:35.768Z,7.20
2019-03-12T03:33:07.723Z,7.16
2019-03-12T03:35:39.275Z,7.15
2019-03-12T03:38:10.997Z,7.12
2019-03-12T03:40:42.579Z,7.10
2019-03-12T03:43:14.170Z,7.08
2019-03-12T03:45:45.948Z,7.08
2019-03-12T03:48:17.626Z,7.07
2019-03-12T03:50:49.208Z,7.05
2019-03-12T03:53:20.780Z,7.03
2019-03-12T03:55:52.478Z,7.03
2019-03-12T03:58:24.546Z,7.05
2019-03-12T04:00:56.375Z,7.03
2019-03-12T04:03:27.939Z,7.03
2019-03-12T04:05:59.611Z,7.03
2019-03-12T04:08:31.184Z,7.01
2019-03-12T04:11:02.900Z,7.02
2019-03-12T04:13:36.044Z,7.00
2019-03-12T04:16:09.365Z,6.99
2019-03-12T04:18:42.649Z,7.00
2019-03-12T04:21:14.323Z,7.00
2019-03-12T04:23:46.677Z,7.00
2019-03-12T04:26:18.357Z,7.00
2019-03-12T04:28:49.996Z,7.00
2019-03-12T04:31:21.588Z,7.01
2019-03-12T04:34:30.209Z,7.00
2019-03-12T04:37:01.826Z,6.99
2019-03-12T04:39:33.405Z,6.99
2019-03-12T04:42:05.269Z,7.00
2019-03-12T04:44:37.003Z,6.99
2019-03-12T04:47:08.584Z,7.00
2019-03-12T04:49:40.180Z,7.01
2019-03-12T04:52:11.804Z,7.03
2019-03-12T04:54:43.410Z,7.03
2019-03-12T04:57:15.200Z,7.04
2019-03-12T04:59:46.823Z,7.03
2019-03-12T05:02:18.687Z,7.03
2019-03-12T05:04:50.499Z,7.02
2019-03-12T05:07:22.082Z,7.02
2019-03-12T05:09:53.836Z,6.99
2019-03-12T05:12:25.635Z,6.97
2019-03-12T05:14:57.222Z,6.97
2019-03-12T05:17:31.767Z,6.95
2019-03-12T05:20:03.368Z,6.94
2019-03-12T05:22:34.986Z,6.92
2019-03-12T05:25:07.951Z,6.88
2019-03-12T05:27:39.678Z,6.85
2019-03-12T05:30:15.325Z,6.81
2019-03-12T05:32:47.050Z,6.80
2019-03-12T05:35:18.877Z,6.79
2019-03-12T05:37:50.586Z,6.77
2019-03-12T05:40:22.239Z,6.73
2019-03-12T05:42:53.880Z,6.73
2019-03-12T05:45:25.649Z,6.73
2019-03-12T05:47:57.258Z,6.72
2019-03-12T05:50:28.883Z,6.72
2019-03-12T05:53:16.518Z,6.73
2019-03-12T05:55:48.101Z,6.73
2019-03-12T05:58:19.707Z,6.73
2019-03-12T06:00:51.474Z,6.75
2019-03-12T06:03:23.162Z,6.75
2019-03-12T06:05:54.858Z,6.76
2019-03-12T06:08:26.494Z,6.75
2019-03-12T06:10:58.310Z,6.74
2019-03-12T06:13:29.885Z,6.74
2019-03-12T06:16:01.704Z,6.73
2019-03-12T06:18:33.406Z,6.74
2019-03-12T06:21:05.025Z,6.73
2019-03-12T06:23:36.624Z,6.74
2019-03-12T06:26:08.319Z,6.75
2019-03-12T06:28:39.943Z,6.77
2019-03-12T06:31:30.580Z,6.80
2019-03-12T06:34:06.585Z,6.81
2019-03-12T06:36:58.869Z,6.85
2019-03-12T06:39:47.755Z,6.91
2019-03-12T06:42:44.485Z,6.95
2019-03-12T06:45:40.601Z,6.98
2019-03-12T06:48:43.107Z,7.00
2019-03-12T06:51:33.682Z,7.02
2019-03-12T06:54:10.989Z,7.02
2019-03-12T06:56:51.703Z,7.03
2019-03-12T06:59:39.221Z,7.04
2019-03-12T07:02:23.495Z,7.09
2019-03-12T07:05:12.884Z,7.12
2019-03-12T07:08:00.944Z,7.16
2019-03-12T07:10:51.675Z,7.22
2019-03-12T07:13:42.249Z,7.30
2019-03-12T07:16:19.711Z,7.35
2019-03-12T07:19:13.113Z,7.43
2019-03-12T07:22:02.119Z,7.50
2019-03-12T07:24:52.629Z,7.56
2019-03-12T07:27:29.925Z,7.63
2019-03-12T07:30:20.408Z,7.67
2019-03-12T07:32:58.840Z,7.74
2019-03-12T07:35:48.042Z,7.81
2019-03-12T07:38:28.554Z,7.90
2019-03-12T07:41:30.285Z,7.97
2019-03-12T07:44:01.460Z,8.06
2019-03-12T07:46:51.911Z,8.18
2019-03-12T07:49:45.184Z,8.27
2019-03-12T07:52:24.500Z,8.41
2019-03-12T07:55:25.375Z,8.55
2019-03-12T07:58:12.006Z,8.68
2019-03-12T08:01:08.497Z,8.85
2019-03-12T08:03:59.468Z,8.96
2019-03-12T08:06:41.229Z,9.07
2019-03-12T08:09:28.502Z,9.13
2019-03-12T08:12:12.113Z,9.14
2019-03-12T08:15:05.803Z,9.16
2019-03-12T08:18:01.941Z,9.19
2019-03-12T08:20:51.353Z,9.21
2019-03-12T08:23:33.281Z,9.27
2019-03-12T08:26:29.704Z,9.34
2019-03-12T08:29:38.542Z,9.40
2019-03-12T08:32:32.102Z,9.44
2019-03-12T08:35:25.557Z,9.48
2019-03-12T08:38:08.060Z,9.54
2019-03-12T08:40:52.461Z,9.61
2019-03-12T08:43:37.917Z,9.69
2019-03-12T08:46:27.346Z,9.75
2019-03-12T08:49:16.826Z,9.81
2019-03-12T08:51:59.388Z,9.87
2019-03-12T08:54:53.791Z,9.94
2019-03-12T08:57:36.228Z,10.05
2019-03-12T09:00:30.259Z,10.14
2019-03-12T09:03:09.585Z,10.24
2019-03-12T09:05:47.274Z,10.32
2019-03-12T09:08:43.623Z,10.42
2019-03-12T09:11:34.276Z,10.53
2019-03-12T09:14:23.482Z,10.66
2019-03-12T09:17:23.174Z,10.81
2019-03-12T09:20:13.722Z,10.95
2019-03-12T09:23:04.328Z,11.12
2019-03-12T09:26:03.918Z,11.26
2019-03-12T09:29:06.638Z,11.45
2019-03-12T09:31:47.240Z,11.63
2019-03-12T09:34:34.722Z,11.78
2019-03-12T09:37:14.992Z,11.90
2019-03-12T09:40:08.059Z,11.99
2019-03-12T09:42:53.475Z,12.03
2019-03-12T09:45:42.840Z,12.06
2019-03-12T09:48:42.570Z,12.11
2019-03-12T09:51:24.450Z,12.14
2019-03-12T09:54:33.427Z,12.17
2019-03-12T09:57:27.157Z,12.19
2019-03-12T10:00:32.700Z,12.20
2019-03-12T10:03:13.496Z,12.18
2019-03-12T10:06:09.647Z,12.29
2019-03-12T10:08:59.153Z,12.36
2019-03-12T10:11:46.594Z,12.38
2019-03-12T10:14:35.825Z,12.39
2019-03-12T10:17:44.711Z,12.40
2019-03-12T10:20:40.919Z,12.42
2019-03-12T10:23:30.027Z,12.43
2019-03-12T10:26:26.416Z,12.50
2019-03-12T10:29:19.692Z,12.58
2019-03-12T10:32:17.192Z,12.57
2019-03-12T10:35:14.153Z,12.56
2019-03-12T10:37:51.819Z,12.59
2019-03-12T10:40:41.714Z,12.64
2019-03-12T10:43:38.275Z,12.69
2019-03-12T10:46:17.965Z,12.77
2019-03-12T10:48:50.014Z,12.83
2019-03-12T10:51:21.768Z,12.91
2019-03-12T10:53:53.502Z,13.02
2019-03-12T10:56:25.137Z,13.17
2019-03-12T10:58:56.825Z,13.28
2019-03-12T11:01:28.492Z,13.39
2019-03-12T11:04:00.336Z,13.51
2019-03-12T11:06:32.037Z,13.61
2019-03-12T11:09:05.639Z,13.71
2019-03-12T11:11:37.424Z,13.76
2019-03-12T11:14:09.083Z,13.84
2019-03-12T11:16:40.699Z,13.90
2019-03-12T11:19:12.290Z,13.95
2019-03-12T11:21:44.016Z,14.01
2019-03-12T11:24:15.679Z,14.07
2019-03-12T11:26:47.293Z,14.09
2019-03-12T11:29:18.886Z,14.14
2019-03-12T11:31:50.524Z,14.15
2019-03-12T11:34:22.221Z,14.16
2019-03-12T11:36:54.079Z,14.21
2019-03-12T11:39:25.799Z,14.23
2019-03-12T11:41:57.682Z,14.28
2019-03-12T11:44:29.454Z,14.33
2019-03-12T11:47:01.373Z,14.39
2019-03-12T11:49:33.133Z,14.36
2019-03-12T11:52:05.223Z,14.40
2019-03-12T11:54:37.183Z,14.44
2019-03-12T11:57:08.826Z,14.47
2019-03-12T11:59:40.506Z,14.48
2019-03-12T12:02:12.259Z,14.49
2019-03-12T12:04:44.004Z,14.54
2019-03-12T12:07:16.158Z,14.62
2019-03-12T12:09:47.768Z,14.63
2019-03-12T12:12:19.588Z,14.67
2019-03-12T12:14:51.296Z,14.61
2019-03-12T12:17:23.269Z,14.70
2019-03-12T12:19:54.998Z,14.70
2019-03-12T12:22:26.941Z,14.73
2019-03-12T12:24:58.784Z,14.75
2019-03-12T12:27:30.911Z,14.77
2019-03-12T12:30:02.798Z,14.80
2019-03-12T12:32:34.407Z,14.86
2019-03-12T12:35:07.485Z,14.92
2019-03-12T12:37:39.190Z,14.99
2019-03-12T12:40:13.839Z,15.03
2019-03-12T12:42:45.765Z,15.04
2019-03-12T12:45:19.211Z,15.08
2019-03-12T12:47:50.834Z,15.09
2019-03-12T12:50:22.727Z,15.09
2019-03-12T12:52:54.313Z,15.12
2019-03-12T12:55:26.216Z,15.16
2019-03-12T12:57:58.317Z,15.21
2019-03-12T13:00:30.185Z,15.24
2019-03-12T13:03:01.858Z,15.30
2019-03-12T13:05:33.559Z,15.33
2019-03-12T13:08:05.212Z,15.39
2019-03-12T13:10:36.933Z,15.46
2019-03-12T13:13:08.698Z,15.53
2019-03-12T13:15:40.384Z,15.58
2019-03-12T13:18:12.277Z,15.64
2019-03-12T13:20:44.003Z,15.66
2019-03-12T13:23:16.108Z,15.65
2019-03-12T13:25:47.993Z,15.63
2019-03-12T13:28:20.320Z,15.62
2019-03-12T13:30:52.027Z,15.62
2019-03-12T13:33:23.635Z,15.65
2019-03-12T13:35:55.283Z,15.71
2019-03-12T13:38:27.345Z,15.76
2019-03-12T13:41:02.903Z,15.80
2019-03-12T13:43:32.803Z,15.75
2019-03-12T13:46:04.531Z,15.78
2019-03-12T13:48:36.263Z,15.76
2019-03-12T13:51:08.520Z,15.73
2019-03-12T13:53:40.553Z,15.73
2019-03-12T13:56:12.713Z,15.76
2019-03-12T13:58:44.330Z,15.81
2019-03-12T14:01:16.057Z,15.86
2019-03-12T14:03:47.683Z,15.89
2019-03-12T14:06:19.365Z,15.92
2019-03-12T14:08:50.985Z,15.93
2019-03-12T14:11:22.871Z,15.92
2019-03-12T14:13:54.510Z,15.95
2019-03-12T14:16:26.208Z,15.95
2019-03-12T14:18:57.934Z,15.98
2019-03-12T14:21:34.832Z,16.02
2019-03-12T14:24:06.642Z,16.06
2019-03-12T14:26:38.612Z,16.07
2019-03-12T14:29:10.313Z,16.08
2019-03-12T14:31:41.933Z,16.06
2019-03-12T14:34:13.662Z,16.05
2019-03-12T14:36:45.296Z,16.02
2019-03-12T14:39:17.511Z,16.04
2019-03-12T14:41:49.389Z,16.03
2019-03-12T14:44:21.338Z,16.05
2019-03-12T14:46:53.221Z,16.05
2019-03-12T14:49:24.959Z,16.05
2019-03-12T14:52:23.021Z,16.02
2019-03-12T14:54:54.788Z,16.02
2019-03-12T14:57:26.439Z,16.02
2019-03-12T14:59:58.147Z,16.04
2019-03-12T15:02:29.842Z,16.02
2019-03-12T15:05:01.535Z,15.97
2019-03-12T15:07:33.163Z,15.98
2019-03-12T15:10:05.071Z,15.98
2019-03-12T15:12:37.066Z,15.97
2019-03-12T15:15:09.208Z,15.97
2019-03-12T15:17:40.919Z,15.95
2019-03-12T15:20:13.435Z,15.93
2019-03-12T15:22:45.393Z,15.95
2019-03-12T15:25:17.063Z,15.98
2019-03-12T15:27:48.795Z,16.00
2019-03-12T15:30:20.994Z,15.98
2019-03-12T15:32:52.721Z,15.94
2019-03-12T15:35:24.376Z,15.93
2019-03-12T15:37:56.039Z,15.90
2019-03-12T15:40:27.679Z,15.87
2019-03-12T15:42:59.359Z,15.85
2019-03-12T15:45:31.222Z,15.82
2019-03-12T15:48:02.860Z,15.78
2019-03-12T15:50:34.912Z,15.74
2019-03-12T15:53:07.379Z,15.69
2019-03-12T15:55:40.217Z,15.63
2019-03-12T15:58:12.085Z,15.58
2019-03-12T16:00:43.896Z,15.56
2019-03-12T16:03:15.608Z,15.53
2019-03-12T16:05:47.279Z,15.50
2019-03-12T16:08:18.905Z,15.46
2019-03-12T16:10:57.941Z,15.44
2019-03-12T16:13:24.322Z,15.45
2019-03-12T16:15:56.208Z,15.43
2019-03-12T16:18:27.839Z,15.45
2019-03-12T16:20:59.501Z,15.43
2019-03-12T16:23:31.159Z,15.41
2019-03-12T16:26:02.934Z,15.39
2019-03-12T16:28:34.729Z,15.35
2019-03-12T16:31:06.543Z,15.33
2019-03-12T16:33:38.293Z,15.31
2019-03-12T16:36:10.059Z,15.28
2019-03-12T16:38:41.793Z,15.29
2019-03-12T16:41:13.565Z,15.28
2019-03-12T16:43:45.336Z,15.26
2019-03-12T16:46:17.124Z,15.25
2019-03-12T16:48:48.969Z,15.24
2019-03-12T16:51:20.923Z,15.21
2019-03-12T16:53:52.578Z,15.17
2019-03-12T16:56:24.263Z,15.11
2019-03-12T16:58:55.948Z,15.03
2019-03-12T17:01:27.773Z,14.95
2019-03-12T17:03:59.498Z,14.91
2019-03-12T17:06:32.455Z,14.89
2019-03-12T17:09:05.229Z,14.86
2019-03-12T17:11:35.725Z,14.83
2019-03-12T17:14:05.664Z,14.79
2019-03-12T17:16:37.325Z,14.78
2019-03-12T17:19:09.004Z,14.75
2019-03-12T17:21:40.700Z,14.71
2019-03-12T17:24:12.526Z,14.69
2019-03-12T17:26:44.740Z,14.66
2019-03-12T17:29:16.560Z,14.63
2019-03-12T17:31:48.201Z,14.60
2019-03-12T17:34:19.879Z,14.56
2019-03-12T17:36:51.571Z,14.54
2019-03-12T17:39:23.405Z,14.52
2019-03-12T17:42:01.049Z,14.50
2019-03-12T17:44:32.781Z,14.47
2019-03-12T17:47:04.501Z,14.44
2019-03-12T17:49:36.309Z,14.41
2019-03-12T17:52:08.037Z,14.39
2019-03-12T17:54:39.744Z,14.35
2019-03-12T17:57:11.550Z,14.33
2019-03-12T17:59:43.395Z,14.31
2019-03-12T18:02:15.152Z,14.30
2019-03-12T18:04:46.915Z,14.27
2019-03-12T18:07:18.717Z,14.23
2019-03-12T18:09:50.406Z,14.20
2019-03-12T18:12:22.820Z,14.15
2019-03-12T18:14:54.678Z,14.14
2019-03-12T18:17:26.478Z,14.09
2019-03-12T18:19:58.212Z,14.06
2019-03-12T18:22:29.983Z,14.00
2019-03-12T18:25:01.835Z,13.95
2019-03-12T18:27:33.647Z,13.92
2019-03-12T18:30:05.873Z,13.92
2019-03-12T18:32:37.663Z,13.89
2019-03-12T18:35:09.559Z,13.84
2019-03-12T18:37:41.302Z,13.79
2019-03-12T18:40:18.462Z,13.78
2019-03-12T18:42:50.490Z,13.78
2019-03-12T18:45:23.742Z,13.77
2019-03-12T18:47:55.511Z,13.76
2019-03-12T18:50:27.264Z,13.76
2019-03-12T18:52:59.144Z,13.72
2019-03-12T18:56:06.518Z,13.70
2019-03-12T18:58:38.468Z,13.69
2019-03-12T19:01:14.842Z,13.68
2019-03-12T19:03:46.601Z,13.68
2019-03-12T19:06:18.308Z,13.69
2019-03-12T19:08:50.018Z,13.69
2019-03-12T19:11:24.696Z,13.69
2019-03-12T19:13:57.236Z,13.66
2019-03-12T19:16:28.962Z,13.63
2019-03-12T19:19:00.857Z,13.62
2019-03-12T19:21:32.596Z,13.62
2019-03-12T19:24:04.795Z,13.63
2019-03-12T19:26:36.544Z,13.65
2019-03-12T19:29:08.677Z,13.66
2019-03-12T19:31:56.124Z,13.66
2019-03-12T19:34:32.621Z,13.65
2019-03-12T19:37:04.496Z,13.64
2019-03-12T19:39:37.173Z,13.64
2019-03-12T19:42:09.003Z,13.66
2019-03-12T19:44:40.839Z,13.68
2019-03-12T19:47:12.497Z,13.66
2019-03-12T19:49:44.452Z,13.66
2019-03-12T19:52:16.328Z,13.64
2019-03-12T19:54:48.114Z,13.65
2019-03-12T19:57:19.742Z,13.62
2019-03-12T19:59:51.625Z,13.60
2019-03-12T20:02:23.480Z,13.61
2019-03-12T20:04:55.313Z,13.61
2019-03-12T20:07:27.624Z,13.62
2019-03-12T20:10:56.736Z,13.65
2019-03-12T20:14:43.401Z,13.67
2019-03-12T20:18:16.141Z,13.66
2019-03-12T20:22:24.575Z,13.61
2019-03-12T20:25:49.054Z,13.51
2019-03-12T20:29:14.488Z,13.36
2019-03-12T20:32:19.760Z,13.25
2019-03-12T20:35:56.191Z,13.17
2019-03-12T20:39:35.762Z,13.14
2019-03-12T20:43:12.079Z,13.11
2019-03-12T20:46:38.636Z,13.06
2019-03-12T20:50:23.607Z,12.94
2019-03-12T20:53:52.919Z,12.94
2019-03-12T20:57:32.907Z,12.90
2019-03-12T21:01:21.623Z,12.86
2019-03-12T21:04:51.233Z,12.81
2019-03-12T21:08:15.741Z,12.74
2019-03-12T21:11:51.124Z,12.67
2019-03-12T21:15:20.078Z,12.68
2019-03-12T21:18:48.379Z,12.67
2019-03-12T21:22:19.060Z,12.61
2019-03-12T21:25:51.774Z,12.50
2019-03-12T21:29:22.020Z,12.37
2019-03-12T21:31:53.800Z,12.36
2019-03-12T21:34:25.601Z,12.35
2019-03-12T21:36:57.387Z,12.39
2019-03-12T21:39:29.109Z,12.43
2019-03-12T21:42:00.821Z,12.52
2019-03-12T21:44:32.542Z,12.67
2019-03-12T21:47:04.473Z,12.81
2019-03-12T21:49:36.887Z,13.07
2019-03-12T21:52:09.154Z,13.29
2019-03-12T21:54:41.804Z,13.49
2019-03-12T21:57:13.471Z,13.69
2019-03-12T21:59:45.231Z,13.86
2019-03-12T22:02:17.106Z,13.99
2019-03-12T22:04:49.194Z,14.11
2019-03-12T22:07:20.878Z,14.20
2019-03-12T22:09:52.645Z,14.29
2019-03-12T22:12:25.034Z,14.34
2019-03-12T22:14:56.773Z,14.41
2019-03-12T22:17:28.482Z,14.45
2019-03-12T22:20:00.548Z,14.48
2019-03-12T22:22:46.431Z,14.47
2019-03-12T22:25:18.187Z,14.46
2019-03-12T22:27:49.894Z,14.46
2019-03-12T22:30:23.216Z,14.41
2019-03-12T22:32:54.877Z,14.39
2019-03-12T22:35:26.515Z,14.36
2019-03-12T22:37:58.397Z,14.33
2019-03-12T22:40:30.011Z,14.32
2019-03-12T22:43:01.751Z,14.29
2019-03-12T22:45:33.398Z,14.27
2019-03-12T22:48:05.275Z,14.25
2019-03-12T22:50:37.002Z,14.24
2019-03-12T22:53:08.786Z,14.21
2019-03-12T22:55:40.373Z,14.21
2019-03-12T22:58:12.042Z,14.21
2019-03-12T23:00:44.220Z,14.21
2019-03-12T23:03:15.843Z,14.20
2019-03-12T23:05:47.503Z,14.18
2019-03-12T23:08:19.303Z,14.18
2019-03-12T23:10:52.087Z,14.17
2019-03-12T23:13:24.364Z,14.16
2019-03-12T23:15:56.100Z,14.14
2019-03-12T23:18:27.729Z,14.12
2019-03-12T23:20:59.425Z,14.11
2019-03-12T23:23:31.168Z,14.10
2019-03-12T23:26:02.784Z,14.09
2019-03-12T23:28:34.411Z,14.05
2019-03-12T23:31:06.029Z,14.01
2019-03-12T23:33:37.642Z,13.94
2019-03-12T23:36:09.260Z,13.83
2019-03-12T23:38:40.984Z,13.72
2019-03-12T23:41:12.577Z,13.58
2019-03-12T23:43:44.183Z,13.45
2019-03-12T23:46:15.915Z,13.33
2019-03-12T23:48:47.558Z,13.27
2019-03-12T23:51:19.186Z,13.23
2019-03-12T23:53:50.959Z,13.20
2019-03-12T23:56:22.559Z,13.16
2019-03-12T23:58:54.194Z,13.10
